createdAt,value
2023-04-23T00:01:15.029Z,98442.56
2023-04-23T00:04:34.695Z,98439.02
2023-04-23T00:07:52.053Z,98436.91
2023-04-23T00:11:10.002Z,98436.76
2023-04-23T00:14:27.460Z,98435.14
2023-04-23T00:17:43.786Z,98428.41
2023-04-23T00:21:00.207Z,98422.17
2023-04-23T00:24:17.296Z,98426.28
2023-04-23T00:27:33.747Z,98434.61
2023-04-23T00:30:50.109Z,98434.80
2023-04-23T00:34:06.360Z,98431.50
2023-04-23T00:37:23.061Z,98432.16
2023-04-23T00:40:39.651Z,98431.67
2023-04-23T00:43:58.146Z,98428.08
2023-04-23T00:47:16.470Z,98418.03
2023-04-23T00:50:33.582Z,98417.73
2023-04-23T00:53:50.298Z,98424.40
2023-04-23T00:57:08.964Z,98423.92
2023-04-23T01:00:26.436Z,98431.84
2023-04-23T01:03:45.546Z,98423.77
2023-04-23T01:07:02.553Z,98424.76
2023-04-23T01:10:20.322Z,98417.53
2023-04-23T01:13:37.405Z,98423.13
2023-04-23T01:17:02.103Z,98419.41
2023-04-23T01:20:19.808Z,98427.68
2023-04-23T01:23:36.505Z,98421.87
2023-04-23T01:26:53.698Z,98421.55
2023-04-23T01:30:14.491Z,98414.79
2023-04-23T01:33:31.496Z,98418.44
2023-04-23T01:36:48.481Z,98423.89
2023-04-23T01:40:05.109Z,98425.41
2023-04-23T01:43:23.050Z,98420.16
2023-04-23T01:46:40.772Z,98420.97
2023-04-23T01:49:57.537Z,98423.95
2023-04-23T01:53:13.881Z,98423.11
2023-04-23T01:56:36.040Z,98424.63
2023-04-23T01:59:52.747Z,98426.78
2023-04-23T02:03:09.358Z,98423.83
2023-04-23T02:06:27.752Z,98425.17
2023-04-23T02:09:44.276Z,98430.45
2023-04-23T02:13:00.610Z,98431.78
2023-04-23T02:16:18.027Z,98416.59
2023-04-23T02:19:36.045Z,98425.00
2023-04-23T02:22:53.064Z,98422.72
2023-04-23T02:26:09.478Z,98426.02
2023-04-23T02:29:25.800Z,98420.42
2023-04-23T02:32:43.030Z,98421.23
2023-04-23T02:35:59.767Z,98421.59
2023-04-23T02:39:16.882Z,98418.63
2023-04-23T02:42:33.278Z,98413.36
2023-04-23T02:45:49.572Z,98412.38
2023-04-23T02:49:05.909Z,98424.88
2023-04-23T02:52:22.304Z,98419.11
2023-04-23T02:55:38.865Z,98417.95
2023-04-23T02:58:55.475Z,98425.22
2023-04-23T03:02:13.398Z,98415.84
2023-04-23T03:05:30.472Z,98415.34
2023-04-23T03:08:47.191Z,98410.38
2023-04-23T03:12:03.544Z,98418.46
2023-04-23T03:15:21.933Z,98414.52
2023-04-23T03:18:38.381Z,98411.70
2023-04-23T03:21:55.781Z,98411.21
2023-04-23T03:25:13.309Z,98423.41
2023-04-23T03:28:29.765Z,98411.70
2023-04-23T03:31:46.079Z,98415.66
2023-04-23T03:35:06.445Z,98417.48
2023-04-23T03:38:23.034Z,98421.09
2023-04-23T03:41:39.419Z,98419.78
2023-04-23T03:44:56.858Z,98424.55
2023-04-23T03:48:13.288Z,98425.05
2023-04-23T03:51:29.843Z,98419.92
2023-04-23T03:54:46.185Z,98417.94
2023-04-23T03:58:04.991Z,98427.50
2023-04-23T04:01:36.622Z,98424.36
2023-04-23T04:04:53.090Z,98429.95
2023-04-23T04:08:10.190Z,98419.11
2023-04-23T04:11:27.134Z,98424.87
2023-04-23T04:14:43.725Z,98427.03
2023-04-23T04:18:01.955Z,98429.19
2023-04-23T04:21:19.887Z,98428.01
2023-04-23T04:24:37.208Z,98427.03
2023-04-23T04:27:53.715Z,98429.81
2023-04-23T04:31:11.443Z,98438.05
2023-04-23T04:34:27.849Z,98439.34
2023-04-23T04:37:45.046Z,98440.16
2023-04-23T04:41:03.673Z,98438.63
2023-04-23T04:44:20.031Z,98442.91
2023-04-23T04:47:37.119Z,98440.08
2023-04-23T04:50:53.619Z,98439.17
2023-04-23T04:54:13.653Z,98449.52
2023-04-23T04:57:34.216Z,98440.55
2023-04-23T05:00:52.326Z,98442.97
2023-04-23T05:04:09.543Z,98445.70
2023-04-23T05:07:26.018Z,98443.67
2023-04-23T05:10:42.448Z,98453.06
2023-04-23T05:13:58.926Z,98445.20
2023-04-23T05:17:17.769Z,98440.81
2023-04-23T05:20:34.051Z,98442.14
2023-04-23T05:23:50.877Z,98446.28
2023-04-23T05:27:07.141Z,98448.33
2023-04-23T05:30:24.692Z,98446.25
2023-04-23T05:33:49.099Z,98444.52
2023-04-23T05:36:59.424Z,98452.91
2023-04-23T05:40:17.950Z,98449.59
2023-04-23T05:43:36.074Z,98451.28
2023-04-23T05:46:52.445Z,98454.79
2023-04-23T05:50:12.514Z,98450.36
2023-04-23T05:53:28.900Z,98447.44
2023-04-23T05:56:45.358Z,98458.61
2023-04-23T06:00:02.125Z,98457.55
2023-04-23T06:03:27.652Z,98459.53
2023-04-23T06:06:46.461Z,98460.45
2023-04-23T06:10:02.943Z,98458.16
2023-04-23T06:13:19.534Z,98457.06
2023-04-23T06:16:35.902Z,98460.63
2023-04-23T06:20:10.027Z,98459.47
2023-04-23T06:23:32.287Z,98464.41
2023-04-23T06:26:49.764Z,98467.87
2023-04-23T06:30:07.282Z,98460.46
2023-04-23T06:33:24.644Z,98472.55
2023-04-23T06:36:40.877Z,98473.77
2023-04-23T06:39:57.105Z,98474.14
2023-04-23T06:43:13.605Z,98473.48
2023-04-23T06:46:48.040Z,98473.05
2023-04-23T06:50:06.577Z,98466.88
2023-04-23T06:53:22.903Z,98472.95
2023-04-23T06:56:41.020Z,98463.59
2023-04-23T07:00:03.245Z,98466.84
2023-04-23T07:03:21.608Z,98457.97
2023-04-23T07:06:40.645Z,98457.61
2023-04-23T07:09:57.087Z,98464.25
2023-04-23T07:13:15.003Z,98467.35
2023-04-23T07:16:33.396Z,98463.84
2023-04-23T07:19:50.010Z,98461.69
2023-04-23T07:23:07.509Z,98466.11
2023-04-23T07:26:23.814Z,98470.94
2023-04-23T07:29:40.136Z,98477.08
2023-04-23T07:32:56.813Z,98474.40
2023-04-23T07:36:13.653Z,98477.69
2023-04-23T07:39:31.377Z,98483.17
2023-04-23T07:42:50.058Z,98484.38
2023-04-23T07:46:06.356Z,98484.09
2023-04-23T07:49:22.829Z,98485.30
2023-04-23T07:52:42.360Z,98490.77
2023-04-23T07:56:01.441Z,98489.84
2023-04-23T07:59:21.900Z,98476.81
2023-04-23T08:02:44.921Z,98478.31
2023-04-23T08:06:05.964Z,98489.17
2023-04-23T08:09:22.476Z,98483.97
2023-04-23T08:12:39.458Z,98476.41
2023-04-23T08:16:02.354Z,98480.01
2023-04-23T08:22:34.848Z,98479.67
2023-04-23T08:25:51.585Z,98475.04
2023-04-23T08:29:10.206Z,98468.52
2023-04-23T08:32:26.774Z,98467.02
2023-04-23T08:35:43.242Z,98467.19
2023-04-23T08:38:59.517Z,98469.21
2023-04-23T08:42:22.800Z,98464.58
2023-04-23T08:45:42.673Z,98462.28
2023-04-23T08:49:01.091Z,98453.55
2023-04-23T08:52:23.495Z,98451.18
2023-04-23T08:55:42.373Z,98447.43
2023-04-23T08:59:00.929Z,98435.66
2023-04-23T09:02:18.085Z,98433.27
2023-04-23T09:05:35.133Z,98419.98
2023-04-23T09:08:54.072Z,98428.56
2023-04-23T09:12:11.482Z,98413.67
2023-04-23T09:15:27.971Z,98408.73
2023-04-23T09:18:44.606Z,98405.70
2023-04-23T09:22:03.487Z,98407.30
2023-04-23T09:25:24.032Z,98407.30
2023-04-23T09:28:48.414Z,98407.61
2023-04-23T09:32:11.594Z,98405.30
2023-04-23T09:35:34.964Z,98407.67
2023-04-23T09:39:05.669Z,98403.98
2023-04-23T09:42:27.638Z,98395.25
2023-04-23T09:45:45.496Z,98396.19
2023-04-23T09:49:09.843Z,98384.03
2023-04-23T09:52:40.610Z,98386.97
2023-04-23T09:56:00.921Z,98380.52
2023-04-23T09:59:46.757Z,98390.39
2023-04-23T10:02:56.988Z,98379.39
2023-04-23T10:06:21.672Z,98374.03
2023-04-23T10:09:33.468Z,98373.01
2023-04-23T10:12:54.946Z,98379.69
2023-04-23T10:16:22.448Z,98360.70
2023-04-23T10:19:32.905Z,98366.36
2023-04-23T10:22:52.536Z,98348.61
2023-04-23T10:26:12.230Z,98350.15
2023-04-23T10:29:33.979Z,98347.97
2023-04-23T10:32:52.000Z,98344.88
2023-04-23T10:36:09.411Z,98349.77
2023-04-23T10:39:30.182Z,98343.89
2023-04-23T10:42:46.384Z,98338.00
2023-04-23T10:46:03.175Z,98326.38
2023-04-23T10:49:21.671Z,98329.58
2023-04-23T10:52:40.507Z,98330.67
2023-04-23T10:55:57.393Z,98320.31
2023-04-23T10:59:17.315Z,98321.69
2023-04-23T11:02:36.791Z,98314.25
2023-04-23T11:05:54.764Z,98313.41
2023-04-23T11:09:27.962Z,98310.39
2023-04-23T11:12:49.320Z,98313.51
2023-04-23T11:16:28.554Z,98319.29
2023-04-23T11:19:50.160Z,98302.46
2023-04-23T11:23:06.972Z,98304.00
2023-04-23T11:26:26.077Z,98304.88
2023-04-23T11:29:43.473Z,98293.13
2023-04-23T11:33:03.847Z,98296.33
2023-04-23T11:36:21.490Z,98292.00
2023-04-23T11:39:37.623Z,98286.77
2023-04-23T11:42:56.100Z,98297.95
2023-04-23T11:46:12.549Z,98286.41
2023-04-23T11:49:29.338Z,98291.63
2023-04-23T11:52:47.695Z,98286.73
2023-04-23T11:56:06.208Z,98271.62
2023-04-23T11:59:23.571Z,98274.86
2023-04-23T12:02:39.958Z,98275.95
2023-04-23T12:05:57.181Z,98268.64
2023-04-23T12:09:14.974Z,98270.81
2023-04-23T12:12:31.901Z,98271.61
2023-04-23T12:15:57.432Z,98267.28
2023-04-23T12:19:15.712Z,98252.99
2023-04-23T12:22:36.051Z,98265.69
2023-04-23T12:25:53.052Z,98256.48
2023-04-23T12:29:09.983Z,98249.74
2023-04-23T12:32:26.417Z,98250.02
2023-04-23T12:35:51.838Z,98233.55
2023-04-23T12:39:33.256Z,98238.70
2023-04-23T12:42:49.501Z,98247.84
2023-04-23T12:46:06.609Z,98231.67
2023-04-23T12:49:24.014Z,98227.90
2023-04-23T12:52:40.365Z,98217.65
2023-04-23T12:55:56.601Z,98215.20
2023-04-23T12:59:13.051Z,98217.08
2023-04-23T13:02:30.566Z,98216.03
2023-04-23T13:05:47.574Z,98215.20
2023-04-23T13:09:05.889Z,98209.53
2023-04-23T13:12:22.494Z,98209.26
2023-04-23T13:15:38.902Z,98208.17
2023-04-23T13:18:56.503Z,98208.72
2023-04-23T13:22:14.249Z,98196.05
2023-04-23T13:25:30.800Z,98185.50
2023-04-23T13:28:47.732Z,98180.65
2023-04-23T13:32:05.510Z,98189.30
2023-04-23T13:35:19.758Z,98173.92
2023-04-23T13:38:38.323Z,98172.29
2023-04-23T13:42:09.131Z,98170.94
2023-04-23T13:45:16.282Z,98179.58
2023-04-23T13:48:34.406Z,98167.44
2023-04-23T13:51:51.164Z,98163.39
2023-04-23T13:55:08.663Z,98164.75
2023-04-23T13:58:25.001Z,98155.83
2023-04-23T14:01:41.493Z,98155.83
2023-04-23T14:04:59.307Z,98142.62
2023-04-23T14:08:15.828Z,98146.39
2023-04-23T14:11:32.504Z,98147.46
2023-04-23T14:14:49.283Z,98151.23
2023-04-23T14:18:07.429Z,98136.09
2023-04-23T14:21:23.894Z,98130.45
2023-04-23T14:24:47.937Z,98128.00
2023-04-23T14:28:08.341Z,98128.83
2023-04-23T14:31:25.195Z,98128.00
2023-04-23T14:34:41.596Z,98120.19
2023-04-23T14:37:58.690Z,98123.98
2023-04-23T14:41:15.881Z,98130.70
2023-04-23T14:44:32.333Z,98117.49
2023-04-23T14:47:49.046Z,98119.91
2023-04-23T14:51:06.128Z,98122.89
2023-04-23T14:54:22.501Z,98119.39
2023-04-23T14:57:38.933Z,98116.14
2023-04-23T15:00:56.484Z,98115.05
2023-04-23T15:04:13.577Z,98122.05
2023-04-23T15:07:32.633Z,98121.27
2023-04-23T15:10:49.019Z,98117.49
2023-04-23T15:14:14.341Z,98108.85
2023-04-23T15:17:30.976Z,98110.20
2023-04-23T15:20:48.146Z,98104.26
2023-04-23T15:24:04.782Z,98103.19
2023-04-23T15:27:23.039Z,98097.52
2023-04-23T15:30:40.914Z,98097.80
2023-04-23T15:33:57.128Z,98094.55
2023-04-23T15:37:13.486Z,98092.67
2023-04-23T15:40:30.395Z,98094.82
2023-04-23T15:43:48.262Z,98085.66
2023-04-23T15:47:05.335Z,98085.94
2023-04-23T15:50:24.689Z,98085.94
2023-04-23T15:53:41.540Z,98082.97
2023-04-23T15:56:58.568Z,98075.95
2023-04-23T16:00:18.352Z,98077.30
2023-04-23T16:03:34.994Z,98073.25
2023-04-23T16:06:51.519Z,98070.04
2023-04-23T16:10:07.915Z,98069.77
2023-04-23T16:13:24.235Z,98064.89
2023-04-23T16:16:40.728Z,98063.81
2023-04-23T16:19:57.255Z,98059.25
2023-04-23T16:23:13.999Z,98058.70
2023-04-23T16:26:30.355Z,98063.02
2023-04-23T16:29:46.821Z,98057.91
2023-04-23T16:33:04.064Z,98054.38
2023-04-23T16:36:20.927Z,98055.73
2023-04-23T16:39:37.316Z,98046.30
2023-04-23T16:42:54.431Z,98045.50
2023-04-23T16:46:11.741Z,98042.26
2023-04-23T16:49:28.124Z,98037.94
2023-04-23T16:52:44.519Z,98033.62
2023-04-23T16:56:01.070Z,98037.66
2023-04-23T16:59:17.378Z,98034.41
2023-04-23T17:02:35.375Z,98033.34
2023-04-23T17:05:53.806Z,98039.00
2023-04-23T17:09:11.630Z,98034.89
2023-04-23T17:12:27.865Z,98038.36
2023-04-23T17:15:44.299Z,98042.11
2023-04-23T17:19:00.761Z,98038.31
2023-04-23T17:22:17.310Z,98034.50
2023-04-23T17:25:33.643Z,98034.98
2023-04-23T17:28:49.936Z,98027.25
2023-04-23T17:32:07.783Z,98030.63
2023-04-23T17:35:24.686Z,98025.44
2023-04-23T17:38:41.906Z,98022.05
2023-04-23T17:41:58.426Z,98025.09
2023-04-23T17:45:18.357Z,98017.84
2023-04-23T17:48:34.846Z,98020.48
2023-04-23T17:51:51.407Z,98020.56
2023-04-23T17:55:07.953Z,98025.21
2023-04-23T17:58:25.616Z,98024.73
2023-04-23T18:01:42.071Z,98025.58
2023-04-23T18:05:00.340Z,98029.50
2023-04-23T18:08:18.034Z,98023.41
2023-04-23T18:11:34.528Z,98026.66
2023-04-23T18:14:51.572Z,98033.47
2023-04-23T18:18:10.466Z,98036.98
2023-04-23T18:21:27.150Z,98041.67
2023-04-23T18:24:43.752Z,98044.83
2023-04-23T18:28:00.004Z,98042.26
2023-04-23T18:31:16.383Z,98042.57
2023-04-23T18:34:33.949Z,98045.11
2023-04-23T18:37:54.880Z,98047.63
2023-04-23T18:41:11.040Z,98042.56
2023-04-23T18:44:27.677Z,98038.05
2023-04-23T18:47:50.502Z,98041.04
2023-04-23T18:51:09.464Z,98044.30
2023-04-23T18:54:27.654Z,98050.46
2023-04-23T18:57:43.645Z,98047.78
2023-04-23T19:00:59.746Z,98044.52
2023-04-23T19:04:17.102Z,98045.05
2023-04-23T19:07:34.451Z,98043.93
2023-04-23T19:10:51.141Z,98048.98
2023-04-23T19:14:09.165Z,98039.80
2023-04-23T19:17:27.630Z,98042.20
2023-04-23T19:20:46.549Z,98041.80
2023-04-23T19:24:03.154Z,98047.69
2023-04-23T19:27:22.557Z,98037.46
2023-04-23T19:30:39.369Z,98043.83
2023-04-23T19:33:55.882Z,98045.69
2023-04-23T19:37:12.440Z,98038.31
2023-04-23T19:40:29.017Z,98036.30
2023-04-23T19:43:46.085Z,98029.02
2023-04-23T19:47:05.079Z,98028.10
2023-04-23T19:50:34.068Z,98030.78
2023-04-23T19:53:52.126Z,98032.41
2023-04-23T19:57:08.510Z,98030.97
2023-04-23T20:00:26.020Z,98034.13
2023-04-23T20:03:44.092Z,98033.02
2023-04-23T20:07:00.716Z,98031.32
2023-04-23T20:10:18.905Z,98028.57
2023-04-23T20:13:35.520Z,98021.83
2023-04-23T20:16:52.167Z,98021.77
2023-04-23T20:20:09.602Z,98020.86
2023-04-23T20:23:25.957Z,98021.91
2023-04-23T20:26:43.817Z,98019.99
2023-04-23T20:30:00.213Z,98020.72
2023-04-23T20:33:17.153Z,98016.59
2023-04-23T20:36:34.692Z,98021.30
2023-04-23T20:39:51.954Z,98014.07
2023-04-23T20:43:09.411Z,98007.98
2023-04-23T20:46:25.840Z,98007.58
2023-04-23T20:49:42.792Z,98008.30
2023-04-23T20:52:59.667Z,98022.89
2023-04-23T20:56:16.078Z,98007.70
2023-04-23T20:59:32.392Z,98019.78
2023-04-23T21:02:49.425Z,98019.84
2023-04-23T21:06:06.356Z,98018.77
2023-04-23T21:09:23.144Z,98017.69
2023-04-23T21:12:40.598Z,98017.61
2023-04-23T21:15:57.828Z,98013.89
2023-04-23T21:19:14.859Z,98019.64
2023-04-23T21:22:32.483Z,98024.02
2023-04-23T21:25:49.772Z,98028.70
2023-04-23T21:29:06.853Z,98021.95
2023-04-23T21:32:23.229Z,98019.63
2023-04-23T21:35:39.641Z,98019.95
2023-04-23T21:38:55.960Z,98023.09
2023-04-23T21:42:12.495Z,98017.52
2023-04-23T21:45:29.121Z,98014.34
2023-04-23T21:48:45.464Z,98018.38
2023-04-23T21:52:03.142Z,98007.89
2023-04-23T21:55:20.434Z,98016.02
2023-04-23T21:58:37.041Z,98007.57
2023-04-23T22:01:53.360Z,98004.50
2023-04-23T22:05:09.888Z,97997.67
2023-04-23T22:08:26.165Z,97996.56
2023-04-23T22:11:48.892Z,97997.50
2023-04-23T22:15:00.646Z,98000.40
2023-04-23T22:18:17.134Z,98000.40
2023-04-23T22:21:33.787Z,98001.66
2023-04-23T22:24:50.164Z,97999.64
2023-04-23T22:28:06.681Z,98004.17
2023-04-23T22:31:22.991Z,98008.11
2023-04-23T22:34:39.612Z,98002.20
2023-04-23T22:37:56.192Z,97998.69
2023-04-23T22:41:12.780Z,97998.84
2023-04-23T22:44:29.026Z,98000.33
2023-04-23T22:47:45.467Z,98001.05
2023-04-23T22:51:03.959Z,97991.88
2023-04-23T22:54:20.312Z,98000.13
2023-04-23T22:57:36.745Z,97987.95
2023-04-23T23:00:53.006Z,97986.81
2023-04-23T23:04:09.268Z,97988.42
2023-04-23T23:07:25.688Z,97974.41
2023-04-23T23:10:42.120Z,97978.75
2023-04-23T23:13:58.381Z,97975.27
2023-04-23T23:17:14.658Z,97965.87
2023-04-23T23:20:31.274Z,97961.41
2023-04-23T23:23:48.093Z,97964.73
2023-04-23T23:27:04.787Z,97965.61
2023-04-23T23:30:22.054Z,97975.63
2023-04-23T23:33:40.458Z,97968.88
2023-04-23T23:36:57.438Z,97967.07
2023-04-23T23:40:16.646Z,97971.42
2023-04-23T23:43:33.151Z,97972.67
2023-04-23T23:46:49.785Z,97972.05
2023-04-23T23:50:06.794Z,97970.42
2023-04-23T23:53:23.036Z,97961.88
2023-04-23T23:56:39.534Z,97965.55
2023-04-23T23:59:56.714Z,97958.63
